createdAt,value
2022-08-29T00:01:59.954Z,53.8
2022-08-29T00:21:59.913Z,54.8
2022-08-29T00:41:59.873Z,55.8
2022-08-29T01:01:59.842Z,55.3
2022-08-29T01:21:59.835Z,55.1
2022-08-29T02:01:59.772Z,56.8
2022-08-29T02:21:59.823Z,57.2
2022-08-29T03:01:59.772Z,60.1
2022-08-29T03:21:59.673Z,59.8
2022-08-29T03:41:59.645Z,60.1
2022-08-29T04:01:59.686Z,60.3
2022-08-29T04:21:59.601Z,60.6
2022-08-29T04:41:59.598Z,62.3
2022-08-29T05:01:59.562Z,62.6
2022-08-29T05:21:59.525Z,62.0
2022-08-29T05:41:59.587Z,62.8
2022-08-29T06:01:59.477Z,61.7
2022-08-29T06:21:59.466Z,61.8
2022-08-29T06:41:59.474Z,61.0
2022-08-29T07:01:59.488Z,60.9
2022-08-29T07:21:59.643Z,62.8
2022-08-29T07:41:59.368Z,60.0
2022-08-29T08:01:59.378Z,58.4
2022-08-29T08:41:59.299Z,56.0
2022-08-29T09:21:59.358Z,52.5
2022-08-29T10:01:59.264Z,50.3
2022-08-29T10:21:59.164Z,49.8
2022-08-29T10:41:59.141Z,46.4
2022-08-29T11:01:59.186Z,44.6
2022-08-29T11:21:59.088Z,42.9
2022-08-29T11:41:59.057Z,40.9
2022-08-29T12:01:59.045Z,40.4
2022-08-29T12:21:59.052Z,38.5
2022-08-29T12:41:59.061Z,39.4
2022-08-29T13:01:58.962Z,35.3
2022-08-29T13:21:59.034Z,35.7
2022-08-29T13:41:58.918Z,34.2
2022-08-29T14:01:58.951Z,36.4
2022-08-29T14:21:58.852Z,35.5
2022-08-29T14:41:58.822Z,34.8
2022-08-29T15:01:58.846Z,34.2
2022-08-29T15:21:58.842Z,36.1
2022-08-29T15:41:58.814Z,34.9
2022-08-29T16:01:58.801Z,34.5
2022-08-29T16:41:58.669Z,35.0
2022-08-29T17:01:58.636Z,35.6
2022-08-29T17:41:58.586Z,36.3
2022-08-29T18:01:58.646Z,36.5
2022-08-29T18:21:58.615Z,37.0
2022-08-29T18:41:58.591Z,37.7
2022-08-29T19:01:58.477Z,38.0
2022-08-29T19:21:58.460Z,38.3
2022-08-29T20:01:58.540Z,39.7
2022-08-29T20:21:58.461Z,39.6
2022-08-29T20:41:58.365Z,39.5
2022-08-29T21:01:58.416Z,43.6
2022-08-29T21:21:58.372Z,45.6
2022-08-29T21:41:58.340Z,46.6
2022-08-29T22:01:58.321Z,44.7
2022-08-29T22:21:58.332Z,43.1
2022-08-29T22:41:58.215Z,40.9
2022-08-29T23:01:58.247Z,41.1
2022-08-29T23:21:58.240Z,42.0
2022-08-29T23:41:58.159Z,44.8
